Time;durP1;ratioP1;P1;durP2;ratioP2;P2;SDS_P1;SDS_P2;PMS_P1;PMS_P2;Temp;Humidity;BMP_temperature;BMP_pressure;BME280_temperature;BME280_humidity;BME280_pressure;Samples;Min_cycle;Max_cycle;Signal;HPM_P1;HPM_P2
2023/09/28 00:01:56;;;;;;;14.50;9.60;;;;;;;14.63;85.53;101248.14;108971;277;38226;-72
2023/09/28 00:04:33;;;;;;;12.50;9.80;;;;;;;14.61;85.81;101248.73;108935;277;38585;-73
2023/09/28 00:07:11;;;;;;;13.50;10.50;;;;;;;14.58;85.52;101250.27;108988;277;38145;-71
2023/09/28 00:09:47;;;;;;;13.80;11.20;;;;;;;14.53;85.76;101238.71;108962;277;38211;-71
2023/09/28 00:12:25;;;;;;;12.90;10.30;;;;;;;14.49;85.65;101244.46;108990;277;38617;-74
2023/09/28 00:15:04;;;;;;;13.30;10.10;;;;;;;14.46;85.60;101246.52;109011;277;38198;-73
2023/09/28 00:17:39;;;;;;;14.00;9.80;;;;;;;14.43;85.64;101245.74;108974;277;38265;-75
2023/09/28 00:20:18;;;;;;;14.10;10.50;;;;;;;14.41;85.70;101243.55;108950;277;38170;-73
2023/09/28 00:22:57;;;;;;;16.40;10.50;;;;;;;14.36;85.72;101239.88;108997;277;38302;-72
2023/09/28 00:25:37;;;;;;;13.50;9.60;;;;;;;14.33;85.75;101236.67;109059;277;38657;-75
2023/09/28 00:28:26;;;;;;;13.80;9.40;;;;;;;14.29;85.84;101240.85;108961;277;38482;-74
2023/09/28 00:31:06;;;;;;;13.00;9.70;;;;;;;14.25;85.78;101239.11;109024;277;38245;-71
2023/09/28 00:33:43;;;;;;;15.20;10.60;;;;;;;14.21;85.85;101238.73;108965;277;38246;-74
2023/09/28 00:36:23;;;;;;;13.90;10.90;;;;;;;14.17;85.87;101236.40;108973;277;39898;-71
2023/09/28 00:38:56;;;;;;;;;;;;;;;14.14;85.92;101238.84;108936;277;38347;-73
2023/09/28 00:41:34;;;;;;;12.40;9.30;;;;;;;14.03;85.71;101238.36;108958;277;38441;-73
2023/09/28 00:44:10;;;;;;;11.30;9.50;;;;;;;13.99;85.71;101241.17;108927;277;38446;-73
2023/09/28 00:46:50;;;;;;;15.60;10.40;;;;;;;13.93;85.86;101242.60;108990;276;38152;-71
2023/09/28 00:49:24;;;;;;;15.30;11.80;;;;;;;13.89;85.81;101237.70;108867;277;175160;-74
2023/09/28 00:52:02;;;;;;;17.30;11.50;;;;;;;13.85;86.11;101235.36;109045;277;38157;-74
2023/09/28 00:54:42;;;;;;;15.40;11.20;;;;;;;13.87;86.42;101235.45;108952;277;38735;-75
2023/09/28 00:57:19;;;;;;;14.80;10.80;;;;;;;13.90;86.64;101233.79;108981;277;38397;-71
2023/09/28 00:59:56;;;;;;;17.30;11.70;;;;;;;13.92;86.69;101237.71;108973;277;39818;-71
2023/09/28 01:02:40;;;;;;;18.70;12.30;;;;;;;13.94;86.90;101233.46;109050;277;38142;-70
2023/09/28 01:05:26;;;;;;;15.90;11.90;;;;;;;13.95;87.08;101238.48;109015;277;39130;-72
2023/09/28 01:08:08;;;;;;;19.20;11.90;;;;;;;13.97;86.94;101235.27;109014;276;37916;-75
2023/09/28 01:10:42;;;;;;;18.90;12.20;;;;;;;13.98;86.93;101233.82;109016;277;39974;-76
2023/09/28 01:13:20;;;;;;;16.70;11.70;;;;;;;13.99;87.06;101231.68;109048;276;38175;-75
2023/09/28 01:15:55;;;;;;;17.50;11.40;;;;;;;13.98;87.05;101231.20;109019;276;38707;-72
2023/09/28 01:18:29;;;;;;;13.20;11.10;;;;;;;13.96;86.89;101228.46;108328;277;899064;-72
2023/09/28 01:21:03;;;;;;;17.50;11.00;;;;;;;13.92;87.03;101228.95;108958;276;38330;-73
2023/09/28 01:23:38;;;;;;;14.80;10.70;;;;;;;13.91;87.10;101226.20;108979;277;38446;-71
2023/09/28 01:26:12;;;;;;;15.00;10.80;;;;;;;13.88;87.12;101224.73;109033;276;38403;-71
2023/09/28 01:28:46;;;;;;;17.50;11.40;;;;;;;13.87;87.35;101222.65;108987;277;38242;-71
2023/09/28 01:31:20;;;;;;;15.30;11.70;;;;;;;13.85;87.30;101220.83;108951;276;39736;-74
2023/09/28 01:33:56;;;;;;;17.30;11.20;;;;;;;13.81;87.21;101218.33;109030;277;39253;-71
2023/09/28 01:36:30;;;;;;;14.20;10.30;;;;;;;13.75;86.99;101221.88;108989;277;38366;-73
2023/09/28 01:39:07;;;;;;;18.40;13.30;;;;;;;13.73;87.34;101222.52;109011;276;38372;-74
2023/09/28 01:41:42;;;;;;;22.00;15.40;;;;;;;13.76;88.12;101210.29;108980;277;38633;-73
2023/09/28 01:44:17;;;;;;;24.50;15.60;;;;;;;13.82;88.22;101216.88;108991;277;38372;-70
2023/09/28 01:46:51;;;;;;;25.60;15.60;;;;;;;13.86;88.38;101215.88;109075;277;39486;-72
2023/09/28 01:49:25;;;;;;;22.00;15.70;;;;;;;13.91;88.47;101213.73;108980;276;38192;-71
2023/09/28 01:52:00;;;;;;;19.90;14.80;;;;;;;13.98;88.76;101212.59;109004;276;38152;-71
2023/09/28 01:54:36;;;;;;;20.80;16.30;;;;;;;14.05;88.81;101208.64;108993;276;39122;-73
2023/09/28 01:57:14;;;;;;;21.60;16.50;;;;;;;14.12;88.49;101203.98;109006;277;38223;-75
2023/09/28 01:59:49;;;;;;;21.60;15.90;;;;;;;14.13;88.37;101202.89;109094;277;38843;-75
2023/09/28 02:02:25;;;;;;;18.70;15.10;;;;;;;14.12;88.01;101201.17;109020;277;39583;-71
2023/09/28 02:05:02;;;;;;;20.50;13.60;;;;;;;14.10;87.56;101201.97;108940;277;39930;-73
2023/09/28 02:07:36;;;;;;;19.10;14.10;;;;;;;14.03;87.21;101201.52;108975;276;38725;-72
2023/09/28 02:10:14;;;;;;;20.10;14.70;;;;;;;13.98;86.83;101201.55;108983;277;38826;-74
2023/09/28 02:12:53;;;;;;;17.10;14.00;;;;;;;13.90;86.56;101202.53;108946;277;38892;-77
2023/09/28 02:15:27;;;;;;;17.30;13.60;;;;;;;13.82;86.37;101202.50;109020;276;38178;-73
2023/09/28 02:18:01;;;;;;;18.50;13.30;;;;;;;13.75;86.36;101201.89;108951;276;38365;-71
2023/09/28 02:20:39;;;;;;;17.20;13.40;;;;;;;13.70;86.23;101204.57;108982;276;38752;-71
2023/09/28 02:23:14;;;;;;;18.00;13.10;;;;;;;13.63;86.02;101203.21;108974;277;41572;-71
2023/09/28 02:25:51;;;;;;;19.10;13.70;;;;;;;13.55;85.95;101204.93;109008;277;39904;-73
2023/09/28 02:28:29;;;;;;;16.80;12.80;;;;;;;13.48;85.70;101206.60;109015;276;38717;-72
2023/09/28 02:31:09;;;;;;;16.20;11.00;;;;;;;13.39;85.43;101201.48;108995;277;38288;-73
2023/09/28 02:33:47;;;;;;;22.60;12.60;;;;;;;13.32;85.64;101199.11;109040;277;38339;-71
2023/09/28 02:36:21;;;;;;;21.30;12.90;;;;;;;13.26;85.61;101196.00;108987;276;38375;-73
2023/09/28 02:38:57;;;;;;;17.80;12.30;;;;;;;13.19;85.49;101194.30;108988;276;38865;-73
2023/09/28 02:41:31;;;;;;;24.60;12.80;;;;;;;13.12;85.42;101194.35;108957;276;38238;-74
2023/09/28 02:44:07;;;;;;;16.10;11.10;;;;;;;13.08;85.37;101193.45;109004;276;38298;-72
2023/09/28 02:46:41;;;;;;;18.30;12.60;;;;;;;13.03;85.14;101195.73;108994;276;38438;-71
2023/09/28 02:49:21;;;;;;;18.00;13.00;;;;;;;12.98;85.48;101198.89;109039;276;38153;-73
2023/09/28 02:51:55;;;;;;;18.00;13.90;;;;;;;12.92;85.49;101197.69;108959;276;39339;-71
2023/09/28 02:54:31;;;;;;;18.00;13.90;;;;;;;12.85;85.50;101200.55;108980;276;38156;-70
2023/09/28 02:57:07;;;;;;;18.30;12.70;;;;;;;12.79;85.58;101197.94;108508;268;615733;-72
2023/09/28 02:59:41;;;;;;;18.00;11.60;;;;;;;12.74;85.54;101197.62;108962;277;38493;-71
2023/09/28 03:02:19;;;;;;;18.10;12.90;;;;;;;12.68;85.61;101196.92;108979;276;38544;-73
2023/09/28 03:04:53;;;;;;;17.00;12.90;;;;;;;12.64;85.71;101193.57;108997;277;39837;-73
2023/09/28 03:07:27;;;;;;;19.90;13.70;;;;;;;12.59;85.77;101191.28;108960;276;39365;-71
2023/09/28 03:10:04;;;;;;;17.20;12.10;;;;;;;12.54;85.68;101188.13;108960;277;38187;-73
2023/09/28 03:12:44;;;;;;;15.00;11.60;;;;;;;12.46;85.57;101187.68;108972;276;38214;-72
2023/09/28 03:15:20;;;;;;;17.10;12.30;;;;;;;12.38;85.61;101187.06;108941;277;38137;-72
2023/09/28 03:17:56;;;;;;;14.70;12.00;;;;;;;12.36;85.99;101188.71;109009;277;39457;-70
2023/09/28 03:20:31;;;;;;;15.70;13.20;;;;;;;12.34;86.16;101187.88;108974;277;38192;-72
2023/09/28 03:23:08;;;;;;;15.10;12.00;;;;;;;12.35;86.61;101190.33;109070;276;37943;-73
2023/09/28 03:25:43;;;;;;;15.00;11.70;;;;;;;12.34;86.91;101185.42;109002;277;38151;-71
2023/09/28 03:28:18;;;;;;;15.90;12.10;;;;;;;12.33;86.83;101186.52;109045;277;38394;-71
2023/09/28 03:30:55;;;;;;;15.50;12.00;;;;;;;12.32;86.92;101188.83;109003;277;38410;-75
2023/09/28 03:33:30;;;;;;;15.80;12.10;;;;;;;12.29;86.91;101190.85;108999;277;38457;-72
2023/09/28 03:36:08;;;;;;;19.30;12.80;;;;;;;12.27;87.15;101191.81;109027;277;38243;-73
2023/09/28 03:38:42;;;;;;;17.90;12.20;;;;;;;12.25;87.42;101191.86;108975;277;38377;-71
2023/09/28 03:41:18;;;;;;;16.90;12.00;;;;;;;12.26;87.58;101196.56;108944;277;38140;-73
2023/09/28 03:43:52;;;;;;;16.90;12.60;;;;;;;12.26;87.71;101193.94;108952;277;38638;-70
2023/09/28 03:46:29;;;;;;;19.70;13.30;;;;;;;12.25;87.64;101194.84;108994;277;38451;-71
2023/09/28 03:49:03;;;;;;;17.00;12.60;;;;;;;12.20;87.47;101197.80;108988;277;39422;-71
2023/09/28 03:51:37;;;;;;;17.20;12.20;;;;;;;12.17;87.77;101193.50;108948;277;39346;-72
2023/09/28 03:54:11;;;;;;;13.90;12.30;;;;;;;12.15;87.62;101191.13;108949;277;38385;-70
2023/09/28 03:56:46;;;;;;;17.50;12.80;;;;;;;12.15;87.70;101187.81;108996;276;39558;-73
2023/09/28 03:59:20;;;;;;;16.70;13.60;;;;;;;12.11;87.44;101187.24;109000;277;38920;-73
2023/09/28 04:01:54;;;;;;;18.30;13.90;;;;;;;12.08;87.55;101188.73;108988;277;38144;-73
2023/09/28 04:04:48;;;;;;;18.50;14.30;;;;;;;12.03;87.54;101182.24;108987;277;38247;-71
2023/09/28 04:07:43;;;;;;;16.70;12.60;;;;;;;11.98;87.59;101182.39;108989;277;38268;-71
2023/09/28 04:10:17;;;;;;;17.40;13.10;;;;;;;11.95;87.77;101178.10;109069;277;39394;-73
2023/09/28 04:12:52;;;;;;;20.50;14.40;;;;;;;11.93;87.84;101176.78;109030;276;39147;-71
2023/09/28 04:15:30;;;;;;;18.50;14.80;;;;;;;11.92;87.87;101177.50;109111;277;38152;-73
2023/09/28 04:18:12;;;;;;;19.40;14.50;;;;;;;11.90;88.00;101177.20;109074;277;38414;-75
2023/09/28 04:20:48;;;;;;;18.60;14.90;;;;;;;11.88;88.15;101181.30;109042;277;38546;-72
2023/09/28 04:23:22;;;;;;;20.60;13.70;;;;;;;11.86;88.10;101182.58;109001;276;39553;-71
2023/09/28 04:25:57;;;;;;;16.80;12.80;;;;;;;11.85;88.23;101181.22;109040;277;39743;-71
2023/09/28 04:28:31;;;;;;;17.60;14.00;;;;;;;11.84;88.36;101181.77;109030;277;38782;-70
2023/09/28 04:31:06;;;;;;;19.60;13.70;;;;;;;11.86;88.99;101182.73;108985;277;38466;-75
2023/09/28 04:33:39;;;;;;;19.20;14.80;;;;;;;11.91;89.25;101181.89;108995;276;38770;-73
2023/09/28 04:36:13;;;;;;;19.60;13.30;;;;;;;11.96;89.57;101183.31;108994;276;38692;-70
2023/09/28 04:38:50;;;;;;;22.00;14.40;;;;;;;12.01;89.88;101184.22;108905;277;175217;-72
2023/09/28 04:41:26;;;;;;;20.40;15.10;;;;;;;12.09;90.44;101181.69;109016;277;38903;-73
2023/09/28 04:44:01;;;;;;;19.60;15.60;;;;;;;12.18;90.72;101176.86;108980;277;38450;-71
2023/09/28 04:46:35;;;;;;;22.40;15.70;;;;;;;12.24;90.85;101179.27;108948;276;40554;-74
2023/09/28 04:49:11;;;;;;;21.90;14.90;;;;;;;12.32;91.26;101176.40;108980;277;39155;-73
2023/09/28 04:51:51;;;;;;;20.20;15.60;;;;;;;12.41;91.65;101183.84;109005;277;38775;-71
2023/09/28 04:54:27;;;;;;;26.00;17.20;;;;;;;12.52;92.25;101180.66;108964;277;38162;-72
2023/09/28 04:57:01;;;;;;;25.30;17.40;;;;;;;12.66;92.86;101185.27;109021;276;38809;-70
2023/09/28 04:59:38;;;;;;;20.80;15.70;;;;;;;12.77;92.63;101193.10;109015;277;38131;-70
2023/09/28 05:02:12;;;;;;;25.60;15.90;;;;;;;12.89;92.79;101186.77;109057;277;38457;-73
2023/09/28 05:04:46;;;;;;;23.60;15.60;;;;;;;12.99;92.86;101186.09;109080;277;38245;-70
2023/09/28 05:07:25;;;;;;;26.90;16.00;;;;;;;13.10;92.81;101188.31;109072;277;38138;-75
2023/09/28 05:10:03;;;;;;;21.10;16.20;;;;;;;13.21;92.80;101185.64;108388;277;899405;-77
2023/09/28 05:12:40;;;;;;;24.00;17.30;;;;;;;13.32;92.88;101185.97;108863;276;175210;-70
2023/09/28 05:15:20;;;;;;;24.60;15.70;;;;;;;13.42;92.50;101184.72;108986;277;38158;-71
2023/09/28 05:17:59;;;;;;;20.10;16.20;;;;;;;13.52;92.44;101187.86;108925;277;38000;-71
2023/09/28 05:20:33;;;;;;;22.00;15.20;;;;;;;13.62;92.19;101188.73;108968;277;38299;-70
2023/09/28 05:23:10;;;;;;;22.10;15.40;;;;;;;13.73;92.05;101186.21;108999;277;38210;-70
2023/09/28 05:25:44;;;;;;;24.30;16.90;;;;;;;13.83;92.07;101187.58;108846;276;175201;-70
2023/09/28 05:28:21;;;;;;;22.80;17.30;;;;;;;13.89;91.57;101186.63;108970;277;39116;-72
2023/09/28 05:30:58;;;;;;;22.10;16.20;;;;;;;13.95;91.43;101189.20;108992;277;38446;-74
2023/09/28 05:33:35;;;;;;;22.20;15.70;;;;;;;14.04;91.57;101190.98;108973;277;39237;-74
2023/09/28 05:36:13;;;;;;;22.70;17.00;;;;;;;14.18;91.81;101190.42;108975;277;38440;-73
2023/09/28 05:38:51;;;;;;;24.00;16.80;;;;;;;14.78;93.81;101186.91;109027;276;38572;-70
2023/09/28 05:41:32;;;;;;;21.10;16.00;;;;;;;15.60;94.17;101188.92;109014;277;38198;-72
2023/09/28 05:44:10;;;;;;;19.60;15.10;;;;;;;16.07;93.34;101186.36;109053;277;38739;-73
2023/09/28 05:46:50;;;;;;;24.80;16.30;;;;;;;16.49;91.19;101176.95;109080;277;38287;-73
2023/09/28 05:49:29;;;;;;;17.60;15.60;;;;;;;16.73;88.95;101176.98;108907;276;174769;-74
2023/09/28 05:52:06;;;;;;;25.80;17.20;;;;;;;17.12;88.11;101182.77;109087;277;40549;-71
2023/09/28 05:54:50;;;;;;;22.80;16.90;;;;;;;17.23;86.06;101187.10;109020;276;38413;-71
2023/09/28 05:57:30;;;;;;;20.30;16.40;;;;;;;17.28;85.17;101188.23;109032;277;38842;-73
2023/09/28 06:00:10;;;;;;;22.60;17.30;;;;;;;17.21;84.40;101187.55;109052;276;38757;-73
2023/09/28 06:02:45;;;;;;;28.60;17.20;;;;;;;17.13;83.43;101190.27;109008;277;38280;-73
2023/09/28 06:05:19;;;;;;;24.00;17.50;;;;;;;17.08;82.62;101187.90;109007;276;38615;-72
2023/09/28 06:07:58;;;;;;;27.30;16.20;;;;;;;17.05;82.31;101189.61;109024;277;38464;-71
2023/09/28 06:10:37;;;;;;;21.20;15.30;;;;;;;17.01;81.81;101188.42;109037;277;38722;-72
2023/09/28 06:13:10;;;;;;;;;;;;;;;16.99;81.01;101185.36;108987;276;39006;-74
2023/09/28 06:15:50;;;;;;;23.90;16.00;;;;;;;16.96;81.23;101184.42;109040;277;38210;-73
2023/09/28 06:18:27;;;;;;;20.50;16.00;;;;;;;16.98;81.41;101180.98;108988;277;38233;-74
2023/09/28 06:21:01;;;;;;;23.60;16.30;;;;;;;16.99;80.68;101183.42;108998;277;38621;-71
2023/09/28 06:23:39;;;;;;;21.20;15.50;;;;;;;17.00;80.59;101181.08;109031;276;38416;-71
2023/09/28 06:26:14;;;;;;;28.20;16.40;;;;;;;17.06;80.71;101183.06;109047;277;38134;-71
2023/09/28 06:28:48;;;;;;;23.40;14.70;;;;;;;17.13;80.28;101180.91;109027;277;39409;-72
2023/09/28 06:31:23;;;;;;;21.20;15.80;;;;;;;17.19;79.55;101178.52;109025;277;38318;-71
2023/09/28 06:34:06;;;;;;;21.30;16.40;;;;;;;17.23;79.08;101181.29;109027;276;38131;-74
2023/09/28 06:36:41;;;;;;;26.80;15.80;;;;;;;17.26;78.42;101178.49;109026;276;38299;-74
2023/09/28 06:39:19;;;;;;;24.90;15.90;;;;;;;17.32;78.34;101180.30;109018;277;39935;-73
2023/09/28 06:41:55;;;;;;;23.80;15.00;;;;;;;17.36;78.01;101180.80;108992;277;41056;-70
2023/09/28 06:44:34;;;;;;;25.00;14.20;;;;;;;17.42;77.54;101180.98;109006;277;38265;-70
2023/09/28 06:47:12;;;;;;;19.50;15.30;;;;;;;17.49;77.04;101179.36;109029;276;39919;-72
2023/09/28 06:49:48;;;;;;;18.10;13.40;;;;;;;17.57;77.10;101178.95;109022;277;38734;-74
2023/09/28 06:52:22;;;;;;;25.70;14.60;;;;;;;17.64;76.82;101174.14;108993;276;38719;-73
2023/09/28 06:55:00;;;;;;;20.60;13.90;;;;;;;17.72;75.81;101171.58;108983;276;38329;-73
2023/09/28 06:57:34;;;;;;;21.80;13.30;;;;;;;17.78;75.26;101175.17;108939;276;39069;-74
2023/09/28 07:00:16;;;;;;;17.70;13.40;;;;;;;17.83;74.89;101174.36;108967;276;38560;-73
2023/09/28 07:02:55;;;;;;;18.60;12.60;;;;;;;17.89;74.37;101176.53;108984;276;38267;-71
2023/09/28 07:05:33;;;;;;;20.40;11.60;;;;;;;17.97;73.78;101175.66;108977;277;39989;-72
2023/09/28 07:08:12;;;;;;;16.60;12.40;;;;;;;18.09;73.91;101178.39;108952;276;38310;-71
2023/09/28 07:10:46;;;;;;;20.10;12.50;;;;;;;18.19;72.89;101178.88;108963;276;38750;-71
2023/09/28 07:13:23;;;;;;;18.40;12.30;;;;;;;18.27;72.45;101175.42;109006;276;37967;-69
2023/09/28 07:16:00;;;;;;;21.40;13.40;;;;;;;18.34;71.65;101174.13;108960;276;38661;-73
2023/09/28 07:18:35;;;;;;;20.20;12.00;;;;;;;18.42;71.79;101174.19;108965;277;38755;-72
2023/09/28 07:21:10;;;;;;;17.00;12.40;;;;;;;18.58;71.04;101174.69;108907;276;39705;-74
2023/09/28 07:23:44;;;;;;;17.40;11.90;;;;;;;18.70;70.20;101172.92;108986;276;38524;-73
2023/09/28 07:26:21;;;;;;;21.70;12.60;;;;;;;18.78;70.37;101170.33;109029;277;39846;-73
2023/09/28 07:28:55;;;;;;;18.90;12.10;;;;;;;18.85;69.94;101167.98;108980;276;38741;-74
2023/09/28 07:31:30;;;;;;;18.40;13.80;;;;;;;18.90;69.50;101169.96;108971;277;38522;-74
2023/09/28 07:34:08;;;;;;;19.90;12.90;;;;;;;18.95;69.42;101171.80;108983;277;39462;-73
2023/09/28 07:36:42;;;;;;;20.00;13.50;;;;;;;19.01;69.93;101170.16;109060;277;38671;-72
2023/09/28 07:39:16;;;;;;;19.30;12.60;;;;;;;19.12;69.58;101170.93;108956;277;38545;-73
2023/09/28 07:41:51;;;;;;;17.50;11.70;;;;;;;19.29;69.27;101171.11;108998;277;38300;-75
2023/09/28 07:44:25;;;;;;;20.90;11.90;;;;;;;19.49;69.08;101175.73;108972;276;38727;-74
2023/09/28 07:47:00;;;;;;;20.00;12.80;;;;;;;19.73;69.00;101167.48;108987;276;38360;-73
2023/09/28 07:49:37;;;;;;;21.30;13.40;;;;;;;20.02;68.60;101172.20;108946;277;38419;-74
2023/09/28 07:52:15;;;;;;;16.60;13.00;;;;;;;20.37;67.43;101167.78;108974;277;38167;-75
2023/09/28 07:54:52;;;;;;;17.40;12.80;;;;;;;20.72;65.78;101166.73;108848;277;174756;-75
2023/09/28 07:57:26;;;;;;;16.90;12.60;;;;;;;21.14;66.71;101163.42;108974;277;38480;-73
2023/09/28 08:00:07;;;;;;;16.20;12.00;;;;;;;21.79;64.72;101163.27;108942;277;38303;-75
2023/09/28 08:02:42;;;;;;;16.80;12.00;;;;;;;22.52;64.56;101156.66;108948;277;38379;-76
2023/09/28 08:05:17;;;;;;;16.60;11.60;;;;;;;23.22;60.77;101155.90;108952;277;38288;-74
2023/09/28 08:07:55;;;;;;;18.30;12.10;;;;;;;23.92;60.35;101157.41;108966;277;38164;-74
2023/09/28 08:10:32;;;;;;;17.20;11.30;;;;;;;24.58;57.50;101153.93;108968;276;39520;-73
2023/09/28 08:13:08;;;;;;;21.00;11.60;;;;;;;25.07;55.73;101150.48;108982;277;38156;-73
2023/09/28 08:15:44;;;;;;;18.10;11.10;;;;;;;25.36;54.46;101144.71;108991;277;38493;-74
2023/09/28 08:18:18;;;;;;;17.40;11.40;;;;;;;25.52;52.83;101145.30;109006;277;39398;-76
2023/09/28 08:20:53;;;;;;;18.10;11.00;;;;;;;25.52;51.64;101139.95;108955;277;38749;-75
2023/09/28 08:23:27;;;;;;;16.50;10.80;;;;;;;25.52;51.77;101142.58;108954;277;38170;-75
2023/09/28 08:26:01;;;;;;;14.10;10.60;;;;;;;25.50;50.72;101143.16;109024;277;38503;-75
2023/09/28 08:28:35;;;;;;;18.20;10.60;;;;;;;25.45;50.63;101139.26;108981;277;38596;-81
2023/09/28 08:31:12;;;;;;;18.30;10.90;;;;;;;25.40;49.90;101144.14;108955;277;38223;-76
2023/09/28 08:33:46;;;;;;;14.60;11.20;;;;;;;25.34;49.82;101147.77;108951;277;38206;-74
2023/09/28 08:36:25;;;;;;;17.20;10.60;;;;;;;25.34;49.37;101147.45;108960;277;39372;-74
2023/09/28 08:38:59;;;;;;;16.50;10.40;;;;;;;25.26;49.71;101146.66;108962;277;38577;-75
2023/09/28 08:41:43;;;;;;;14.70;9.90;;;;;;;25.10;48.50;101144.28;108962;277;39413;-76
2023/09/28 08:44:20;;;;;;;16.00;10.20;;;;;;;24.96;49.08;101141.94;108938;277;39641;-74
2023/09/28 08:46:56;;;;;;;14.30;10.20;;;;;;;24.88;49.21;101136.95;108968;277;39756;-75
2023/09/28 08:49:32;;;;;;;14.00;9.20;;;;;;;24.86;49.87;101133.36;108931;277;38593;-75
2023/09/28 08:52:13;;;;;;;13.80;9.70;;;;;;;24.85;49.62;101135.05;108976;277;39310;-77
2023/09/28 08:54:47;;;;;;;14.70;9.60;;;;;;;24.82;49.66;101129.09;109018;277;38343;-75
2023/09/28 08:57:24;;;;;;;16.10;10.30;;;;;;;24.76;49.10;101132.09;108926;277;38239;-77
2023/09/28 08:59:58;;;;;;;13.80;9.40;;;;;;;24.60;48.49;101132.21;108963;276;38695;-75
2023/09/28 09:02:37;;;;;;;14.30;9.40;;;;;;;24.42;48.88;101130.52;108945;277;38258;-75
2023/09/28 09:05:13;;;;;;;20.80;9.80;;;;;;;24.31;49.68;101128.90;109002;276;39615;-75
2023/09/28 09:07:47;;;;;;;18.70;9.60;;;;;;;24.23;49.83;101129.05;108995;277;38346;-74
2023/09/28 09:10:23;;;;;;;17.40;9.50;;;;;;;24.20;50.68;101127.67;109011;277;38222;-75
2023/09/28 09:12:59;;;;;;;14.30;9.80;;;;;;;24.24;50.76;101125.21;108989;277;39347;-74
2023/09/28 09:15:36;;;;;;;14.40;9.10;;;;;;;24.34;51.00;101119.70;109019;277;38239;-73
2023/09/28 09:18:14;;;;;;;15.60;9.60;;;;;;;24.58;50.56;101118.28;108963;276;38457;-74
2023/09/28 09:20:48;;;;;;;17.00;10.00;;;;;;;24.91;50.13;101116.84;109007;277;39633;-76
2023/09/28 09:23:25;;;;;;;15.50;9.40;;;;;;;25.28;48.43;101115.65;108964;277;38222;-74
2023/09/28 09:26:02;;;;;;;12.70;9.20;;;;;;;25.76;47.97;101115.12;109050;276;38161;-76
2023/09/28 09:28:40;;;;;;;17.60;9.30;;;;;;;26.32;47.12;101112.08;108989;277;38689;-71
2023/09/28 09:31:16;;;;;;;13.50;9.10;;;;;;;26.95;46.78;101115.00;108973;276;38565;-72
2023/09/28 09:33:54;;;;;;;12.50;8.30;;;;;;;27.61;45.30;101112.41;108948;276;38274;-74
2023/09/28 09:36:28;;;;;;;9.30;8.10;;;;;;;28.24;44.35;101109.14;108882;276;174283;-73
2023/09/28 09:39:08;;;;;;;12.40;8.10;;;;;;;28.84;43.22;101105.70;108945;276;39007;-73
2023/09/28 09:41:50;;;;;;;10.60;7.90;;;;;;;29.39;41.30;101108.05;108976;277;39796;-72
2023/09/28 09:44:27;;;;;;;13.10;8.10;;;;;;;29.72;41.01;101105.77;108941;277;38273;-76
2023/09/28 09:47:02;;;;;;;9.50;7.50;;;;;;;29.85;40.04;101110.41;109003;277;38594;-76
2023/09/28 09:49:39;;;;;;;12.40;8.20;;;;;;;29.76;40.07;101111.27;108948;277;40137;-76
2023/09/28 09:52:13;;;;;;;10.70;8.00;;;;;;;29.58;39.53;101113.25;108966;276;39491;-75
2023/09/28 09:54:48;;;;;;;10.40;8.00;;;;;;;29.28;39.45;101116.56;108975;277;38466;-74
2023/09/28 09:57:24;;;;;;;14.20;8.30;;;;;;;28.93;39.39;101116.14;109001;276;39340;-76
2023/09/28 10:00:00;;;;;;;10.90;8.40;;;;;;;28.56;40.02;101108.44;109006;276;38553;-75
2023/09/28 10:02:39;;;;;;;13.50;8.10;;;;;;;28.23;40.59;101111.45;109052;277;39637;-75
2023/09/28 10:05:14;;;;;;;13.50;7.90;;;;;;;27.88;41.15;101113.16;108980;276;39596;-75
2023/09/28 10:07:47;;;;;;;11.60;8.10;;;;;;;27.59;41.89;101108.83;108978;277;38210;-75
2023/09/28 10:10:21;;;;;;;12.50;9.10;;;;;;;27.37;42.22;101107.55;109018;277;38351;-75
2023/09/28 10:12:56;;;;;;;12.30;8.50;;;;;;;27.13;42.53;101101.80;109045;277;38248;-76
2023/09/28 10:15:47;;;;;;;14.70;8.40;;;;;;;26.93;42.84;101101.72;109031;277;38495;-76
2023/09/28 10:18:26;;;;;;;17.00;8.40;;;;;;;26.77;43.24;101102.20;108936;276;38424;-75
2023/09/28 10:21:01;;;;;;;14.20;8.60;;;;;;;26.63;43.10;101101.70;108960;277;38742;-74
2023/09/28 10:23:37;;;;;;;10.20;8.60;;;;;;;26.51;43.61;101101.39;108972;277;38429;-75
2023/09/28 10:26:18;;;;;;;12.80;8.30;;;;;;;26.43;43.99;101100.20;108849;276;174595;-73
2023/09/28 10:29:08;;;;;;;12.20;8.50;;;;;;;26.33;44.37;101097.52;108946;276;38307;-75
2023/09/28 10:31:43;;;;;;;13.10;7.60;;;;;;;26.27;44.37;101095.79;108983;276;38293;-74
2023/09/28 10:34:23;;;;;;;10.50;7.90;;;;;;;26.19;44.75;101093.27;109048;277;38430;-75
2023/09/28 10:37:26;;;;;;;13.00;8.00;;;;;;;26.14;45.03;101096.08;108827;276;174096;-75
2023/09/28 10:40:04;;;;;;;11.40;7.80;;;;;;;26.05;44.69;101093.56;108948;277;38332;-75
2023/09/28 10:42:41;;;;;;;16.00;8.30;;;;;;;25.96;44.38;101097.18;108969;269;38631;-75
2023/09/28 10:45:17;;;;;;;14.20;7.60;;;;;;;25.90;44.58;101097.54;108987;276;38139;-75
2023/09/28 10:47:53;;;;;;;12.60;7.50;;;;;;;25.86;44.62;101098.67;109029;277;39012;-74
2023/09/28 10:50:31;;;;;;;14.80;7.50;;;;;;;25.80;44.36;101098.12;108969;276;38314;-75
2023/09/28 10:53:08;;;;;;;16.70;7.80;;;;;;;25.75;44.57;101096.58;108944;276;38814;-74
2023/09/28 10:55:45;;;;;;;12.20;7.20;;;;;;;25.70;44.71;101094.14;109017;276;38156;-74
2023/09/28 10:58:20;;;;;;;13.10;7.50;;;;;;;25.65;43.99;101091.04;108470;276;38742;-72
2023/09/28 11:00:54;;;;;;;13.30;7.10;;;;;;;25.60;44.43;101091.16;109036;277;39709;-74
2023/09/28 11:03:28;;;;;;;11.10;7.20;;;;;;;25.56;44.43;101090.94;108896;276;187715;-74
2023/09/28 11:06:05;;;;;;;13.80;7.30;;;;;;;25.55;44.65;101091.44;108963;276;38747;-75
2023/09/28 11:08:43;;;;;;;8.90;7.10;;;;;;;25.55;45.21;101087.32;108982;277;39021;-74
2023/09/28 11:11:21;;;;;;;11.00;6.90;;;;;;;25.54;45.07;101087.95;109037;276;38737;-73
2023/09/28 11:13:56;;;;;;;13.50;6.70;;;;;;;25.51;44.34;101084.27;109006;276;38376;-75
2023/09/28 11:16:30;;;;;;;10.90;6.60;;;;;;;25.46;44.35;101082.16;109028;276;39389;-76
2023/09/28 11:19:05;;;;;;;10.00;6.70;;;;;;;25.45;44.69;101077.50;108992;276;38710;-76
2023/09/28 11:21:48;;;;;;;11.10;6.90;;;;;;;25.43;43.98;101077.48;108984;277;38144;-73
2023/09/28 11:24:23;;;;;;;12.10;6.70;;;;;;;25.38;44.03;101072.44;108947;277;38909;-74
2023/09/28 11:26:57;;;;;;;12.40;6.60;;;;;;;25.36;44.07;101072.61;108994;277;40058;-75
2023/09/28 11:29:43;;;;;;;9.60;6.00;;;;;;;25.35;44.14;101071.05;108981;277;38284;-76
2023/09/28 11:32:20;;;;;;;10.70;5.90;;;;;;;25.35;44.20;101070.38;109011;277;38409;-74
2023/09/28 11:34:56;;;;;;;10.40;6.50;;;;;;;25.33;44.02;101071.75;108966;277;38211;-74
2023/09/28 11:37:30;;;;;;;10.10;6.20;;;;;;;25.31;43.66;101071.41;108989;277;39467;-76
2023/09/28 11:40:10;;;;;;;10.80;5.70;;;;;;;25.29;43.85;101065.90;108924;275;38911;-75
2023/09/28 11:42:45;;;;;;;10.90;6.60;;;;;;;25.26;43.54;101060.80;109026;277;39602;-74
2023/09/28 11:45:28;;;;;;;10.60;6.40;;;;;;;25.23;43.52;101058.42;109005;277;38486;-74
2023/09/28 11:48:09;;;;;;;11.50;5.80;;;;;;;25.21;43.52;101057.61;108974;277;38491;-75
2023/09/28 11:50:44;;;;;;;7.30;5.90;;;;;;;25.21;43.48;101057.67;109012;277;38351;-76
2023/09/28 11:53:22;;;;;;;11.20;6.70;;;;;;;25.19;43.24;101053.73;108976;277;39413;-78
2023/09/28 11:56:00;;;;;;;11.00;6.20;;;;;;;25.17;43.41;101053.55;109008;277;38570;-73